x

Buoy B01 - Western Maine Shelf (44030) Wave Buoy

7:04pm - Mon 25th May 2015 All times are EDT. -4 hours from GMT.

  • Sig Wave height 2.0ft
  • Peak Period 3s
  • Wind
    16mph, 18mph gusts
  • Sea Temp 50°f
  • Air Temp 57°f
  • Sea Pressure 1018.6mb
  • Buoy B01 - Western Maine Shelf
  • Buoy B01 - Western Maine Shelf

More Historic Weather Station data

Upgrade to MSW Pro to gain access to the past 30 days of data for over 8000 Wavebouys and Weather Stations around the globe.

Join Pro

Comparision Forecast

View Surf forecast
   
Mon 05/25 7:04pm 2ft 3s 16 18 mph 1018.6mb 50f 57f
6:04pm 1.6ft 4s 11 13 mph 1018.9mb 50f 56f
5:04pm 2ft 5s 9
mph
1019.2mb 50f 56f
4:04pm 1.6ft 5s 11 13 mph 1019.5mb 50f 56f
3:04pm 2ft 5s 11 13 mph 1019.8mb 50f 56f
2:04pm 2.5ft 5s 9 11 mph 1020mb 50f 56f
1:04pm 2ft 5s 7 9 mph 1020.6mb 50f 56f
12:04pm 2.5ft 5s 9 11 mph 1021.1mb 50f 54f
11:04am 2.5ft 5s 9 11 mph 1021.2mb 49f 54f
10:04am 2.5ft 5s 7
mph
1021.1mb 49f 53f
9:04am 2ft 5s 9 11 mph 1021.2mb 49f 53f
8:04am 2ft 5s 9 11 mph 1021.3mb 49f 53f
7:04am 2ft 5s 9 11 mph 1021mb 49f 52f
6:04am 2ft 5s 9 11 mph 1020.8mb 49f 52f
5:04am 2ft 5s 11
mph
1020.2mb 49f 53f
4:04am 2.5ft 5s 9 11 mph 1020mb 49f 51f
3:04am 2.5ft 5s 11 13 mph 1019.8mb 49f 55f
2:04am 2.5ft 6s 9 11 mph 1020.1mb 49f 55f
1:04am 2.5ft 5s 11
mph
1020.3mb 49f 56f
12:04am 2.5ft 5s 13 16 mph 1020.3mb 49f 55f
Sun 05/24 11:04pm 2.5ft 5s 16 18 mph 1019.9mb 49f 56f
10:04pm 1.6ft 5s 16 18 mph 1019.4mb 49f 56f
9:04pm 1.6ft 5s 9
mph
1018.6mb 50f 56f
8:04pm 1.6ft 5s 7
mph
1017.9mb 50f 56f
7:04pm 1.6ft 5s 9
mph
1017.3mb 50f 60f
6:04pm 2ft 5s 9
mph
1017.2mb 50f 62f
5:04pm 2.5ft 5s 11 13 mph 1017.3mb 50f 63f
4:04pm 2.5ft 5s 13 16 mph 1017.8mb 50f 66f
3:04pm 2ft 5s 9 11 mph 1018.3mb 49f 63f
2:04pm 1.6ft 5s 11
mph
1018.7mb 49f 56f
1:04pm 2ft 5s 11 13 mph 1019.2mb 49f 55f
12:04pm 1.6ft 5s 11 13 mph 1019.9mb 49f 56f
11:04am 1.6ft 5s 9
mph
1020.3mb 48f 53f
10:04am 1.6ft 5s 9 11 mph 1020.8mb 47f 52f
9:04am 2ft 5s 11 13 mph 1021.1mb 47f 51f
8:04am 2.5ft 5s 13 16 mph 1020.9mb 47f 50f
7:04am 2.5ft 4s 16 18 mph 1020.8mb 47f 50f
6:04am 2.5ft 4s 16 18 mph 1020.8mb 48f 49f
5:04am 1.6ft 3s 7 9 mph 1021mb 48f 49f
4:04am 2ft 3s 11
mph
1021mb 48f 49f
3:04am 2ft 8s 13 16 mph 1021.3mb 48f 50f
2:04am 2ft 8s 13 16 mph 1021.7mb 48f 51f
1:04am 2ft 8s 11 13 mph 1022.1mb 48f 51f
12:04am 2ft 8s 13 16 mph 1022.3mb 48f 51f
Sat 05/23 11:04pm 2ft 8s 11 13 mph 1022.4mb 48f 50f
10:04pm 1.3ft 8s 11 13 mph 1022.3mb 48f 52f
9:04pm 1.3ft 8s 7 9 mph 1022.4mb 48f 52f
8:04pm 1ft 2s 4
mph
1022.4mb 48f 53f
7:04pm 2ft 3s 7 9 mph 1022.2mb 48f 54f
6:04pm 1.6ft 3s 11 13 mph 1021.8mb 48f 56f
5:04pm 1.6ft 3s 9 11 mph 1022mb 48f 53f
4:04pm 2ft 3s 11 13 mph 1022.4mb 47f 54f
3:04pm 2.5ft 3s 18 22 mph 1022.7mb 47f 53f
2:04pm 2ft 3s 16 20 mph 1022.9mb 47f 52f
1:04pm 2.5ft 3s 16 22 mph 1023.2mb 47f 50f
12:04pm 2.5ft 3s 18 22 mph 1023.3mb 47f 49f
11:04am 3.5ft 8s 18 25 mph 1023.3mb 46f 48f
10:04am 3ft 3s 18 22 mph 1023.4mb 47f 47f
9:04am 2.5ft 8s 18 22 mph 1023.2mb 47f 46f
8:04am 2.5ft 8s 16 20 mph 1022.9mb 47f 44f
7:04am 2ft 3s 18 20 mph 1022.2mb 47f 43f
6:04am 2ft 2s 16 18 mph 1021.2mb 47f 43f
5:04am 2.5ft 3s 18 20 mph 1019.9mb 47f 44f
4:04am 3ft 3s 22 27 mph 1019.1mb 47f 45f
3:04am 2.5ft 3s 22 27 mph 1017.8mb 47f 48f
2:04am 2ft 3s 18 25 mph 1016.8mb 48f 49f
1:04am 1.3ft 5s 16 18 mph 1015.7mb 48f 50f
12:04am 1.6ft 11s 9
mph
1015.4mb 48f 51f
Fri 05/22 11:04pm 1.6ft 11s 9 11 mph 1014.6mb 49f 52f
10:04pm 2.5ft 11s 9
mph
1013.8mb 49f 52f
9:04pm 2ft 3s 11 13 mph 1013mb 49f 53f
8:04pm 2.5ft 3s 13
mph
1011.6mb 49f 54f
7:04pm 2.5ft 3s 16 18 mph 1010mb 49f 56f
6:04pm 1.6ft 5s 18 22 mph 1008.6mb 49f 58f
5:04pm 2ft 5s 7 11 mph 1007.9mb 49f 53f
4:04pm 2ft 5s 7 11 mph 1006.9mb 49f 52f
3:04pm 2.5ft 5s 13 18 mph 1006.1mb 49f 53f
2:04pm 2.5ft 5s 11 13 mph 1006.2mb 49f 52f
1:04pm 3ft 5s 11 13 mph 1006.4mb 49f 52f
12:04pm 3ft 5s 11 13 mph 1006.9mb 49f 51f
11:04am 2.5ft 5s 9 11 mph 1007.4mb 49f 50f
10:04am 2.5ft 5s 11
mph
1007.5mb 48f 49f
9:04am 2.5ft 5s 7 9 mph 1007.6mb 48f 49f
8:04am 2.5ft 5s 11 13 mph 1007.8mb 48f 50f
7:04am 2.5ft 5s 11 13 mph 1007.7mb 48f 49f
6:04am 2.5ft 5s 13 16 mph 1007.5mb 49f 50f
5:04am 2.5ft 5s 13
mph
1007.2mb 48f 50f
4:04am 2.5ft 5s 13 16 mph 1006.7mb 48f 50f
3:04am 2.5ft 5s 11 13 mph 1006.9mb 48f 50f
2:04am 2.5ft 5s 11 13 mph 1007.2mb 48f 50f
1:04am 2.5ft 3s 13 16 mph 1007.5mb 48f 51f